createdAt,value
2023-03-30T00:00:57.805Z,13296.5381
2023-03-30T00:01:59.229Z,13298.4619
2023-03-30T00:03:00.792Z,13299.5381
2023-03-30T00:04:02.415Z,13293.0000
2023-03-30T00:05:03.614Z,13302.6924
2023-03-30T00:06:04.944Z,13304.2305
2023-03-30T00:07:06.388Z,13295.4619
2023-03-30T00:08:07.832Z,13296.6924
2023-03-30T00:09:09.279Z,13297.7695
2023-03-30T00:10:10.662Z,13295.0000
2023-03-30T00:11:12.117Z,13292.0771
2023-03-30T00:12:13.510Z,13291.7695
2023-03-30T00:13:14.960Z,13291.9229
2023-03-30T00:14:16.371Z,13289.7695
2023-03-30T00:15:17.810Z,13297.6924
2023-03-30T00:16:19.271Z,13291.8457
2023-03-30T00:17:20.685Z,13288.6924
2023-03-30T00:18:22.150Z,13293.9229
2023-03-30T00:19:23.540Z,13304.2305
2023-03-30T00:20:24.996Z,13291.9229
2023-03-30T00:21:26.427Z,13294.1543
2023-03-30T00:22:27.826Z,13294.4619
2023-03-30T00:23:29.273Z,13294.3076
2023-03-30T00:24:30.680Z,13293.0000
2023-03-30T00:25:32.121Z,13297.4619
2023-03-30T00:26:33.553Z,13298.5381
2023-03-30T00:27:34.989Z,13303.2305
2023-03-30T00:28:36.413Z,13295.0771
2023-03-30T00:29:37.820Z,13283.1543
2023-03-30T00:30:39.272Z,13282.2305
2023-03-30T00:31:40.734Z,13283.0771
2023-03-30T00:32:42.242Z,13291.6924
2023-03-30T00:33:46.983Z,13294.2305
2023-03-30T00:34:44.981Z,13288.5381
2023-03-30T00:35:46.459Z,13284.6152
2023-03-30T00:36:47.842Z,13290.6924
2023-03-30T00:37:49.275Z,13286.0771
2023-03-30T00:38:50.836Z,13282.0000
2023-03-30T00:39:52.116Z,13289.9229
2023-03-30T00:40:53.577Z,13285.7695
2023-03-30T00:41:55.010Z,13290.6924
2023-03-30T00:42:56.426Z,13285.0771
2023-03-30T00:43:57.876Z,13274.8457
2023-03-30T00:44:59.299Z,13282.5381
2023-03-30T00:46:00.813Z,13283.5381
2023-03-30T00:47:02.174Z,13292.5381
2023-03-30T00:48:03.649Z,13287.5381
2023-03-30T00:49:05.026Z,13286.1543
2023-03-30T00:50:06.476Z,13276.6924
2023-03-30T00:51:08.023Z,13291.0771
2023-03-30T00:52:09.297Z,13276.6152
2023-03-30T00:53:10.754Z,13280.7695
2023-03-30T00:54:12.160Z,13281.0000
2023-03-30T00:55:13.608Z,13278.4619
2023-03-30T00:56:15.035Z,13290.8457
2023-03-30T00:57:16.471Z,13292.3848
2023-03-30T00:58:17.933Z,13280.0000
2023-03-30T00:59:19.366Z,13281.8457
2023-03-30T01:00:20.749Z,13291.5381
2023-03-30T01:01:22.253Z,13288.9229
2023-03-30T01:02:23.600Z,13275.0771
2023-03-30T01:03:25.182Z,13282.6152
2023-03-30T01:04:26.493Z,13282.6152
2023-03-30T01:05:27.914Z,13277.7695
2023-03-30T01:06:29.335Z,13282.1543
2023-03-30T01:07:30.770Z,13272.8457
2023-03-30T01:08:32.221Z,13276.6924
2023-03-30T01:09:33.654Z,13274.1543
2023-03-30T01:10:35.062Z,13274.0771
2023-03-30T01:11:36.488Z,13277.3848
2023-03-30T01:12:37.953Z,13283.2305
2023-03-30T01:13:39.383Z,13285.4619
2023-03-30T01:14:40.808Z,13286.6152
2023-03-30T01:15:42.245Z,13287.1543
2023-03-30T01:16:43.606Z,13276.5381
2023-03-30T01:17:45.108Z,13275.3848
2023-03-30T01:18:46.459Z,13266.0000
2023-03-30T01:19:47.895Z,13273.1543
2023-03-30T01:20:49.322Z,13280.6924
2023-03-30T01:21:50.764Z,13278.2305
2023-03-30T01:22:52.224Z,13272.0771
2023-03-30T01:23:53.637Z,13282.8457
2023-03-30T01:24:55.049Z,13272.7695
2023-03-30T01:25:56.536Z,13280.6152
2023-03-30T01:26:57.914Z,13276.6152
2023-03-30T01:27:59.391Z,13272.6152
2023-03-30T01:29:00.787Z,13270.9229
2023-03-30T01:30:02.320Z,13276.7695
2023-03-30T01:31:03.834Z,13274.3848
2023-03-30T01:32:05.160Z,13274.0000
2023-03-30T01:33:06.566Z,13270.5381
2023-03-30T01:34:07.940Z,13273.3848
2023-03-30T01:35:09.423Z,13271.2305
2023-03-30T01:36:10.821Z,13269.6152
2023-03-30T01:37:12.257Z,13278.2305
2023-03-30T01:38:13.691Z,13270.0771
2023-03-30T01:39:15.116Z,13264.6152
2023-03-30T01:40:16.562Z,13268.6152
2023-03-30T01:41:17.965Z,13268.3076
2023-03-30T01:42:19.386Z,13267.7695
2023-03-30T01:43:21.182Z,13262.6152
2023-03-30T01:44:22.236Z,13271.2305
2023-03-30T01:45:23.663Z,13269.0000
2023-03-30T01:46:25.205Z,13265.2305
2023-03-30T01:47:26.525Z,13260.1543
2023-03-30T01:48:27.995Z,13269.6152
2023-03-30T01:49:29.648Z,13273.0000
2023-03-30T01:50:30.971Z,13265.7500
2023-03-30T01:51:32.282Z,13269.2305
2023-03-30T01:52:33.728Z,13260.0000
2023-03-30T01:53:35.118Z,13265.7695
2023-03-30T01:54:36.570Z,13262.2305
2023-03-30T01:55:37.961Z,13266.3848
2023-03-30T01:56:39.436Z,13267.8457
2023-03-30T01:57:40.814Z,13264.0000
2023-03-30T01:58:42.248Z,13261.5381
2023-03-30T01:59:43.667Z,13276.8457
2023-03-30T02:00:45.130Z,13264.2305
2023-03-30T02:01:46.635Z,13262.5381
2023-03-30T02:02:47.986Z,13262.5381
2023-03-30T02:03:49.473Z,13261.0771
2023-03-30T02:04:50.837Z,13265.6152
2023-03-30T02:05:52.257Z,13267.9229
2023-03-30T02:06:53.769Z,13255.0771
2023-03-30T02:07:55.378Z,13251.7695
2023-03-30T02:08:56.544Z,13260.2002
2023-03-30T02:09:57.985Z,13250.5381
2023-03-30T02:11:00.531Z,13247.1816
2023-03-30T02:12:00.895Z,13253.1543
2023-03-30T02:13:02.277Z,13253.6924
2023-03-30T02:14:03.688Z,13252.7695
2023-03-30T02:15:05.134Z,13257.6152
2023-03-30T02:16:06.604Z,13251.3076
2023-03-30T02:17:07.992Z,13252.6924
2023-03-30T02:18:09.431Z,13257.3848
2023-03-30T02:19:10.841Z,13242.6152
2023-03-30T02:20:12.268Z,13261.6924
2023-03-30T02:21:13.725Z,13259.7695
2023-03-30T02:22:15.124Z,13256.5381
2023-03-30T02:23:17.398Z,13259.3076
2023-03-30T02:24:20.261Z,13255.4541
2023-03-30T02:25:24.256Z,13251.1426
2023-03-30T02:26:25.677Z,13248.4619
2023-03-30T02:27:27.106Z,13254.6924
2023-03-30T02:28:28.530Z,13248.9229
2023-03-30T02:29:29.949Z,13250.3848
2023-03-30T02:30:31.397Z,13252.8457
2023-03-30T02:31:32.841Z,13247.4619
2023-03-30T02:32:34.274Z,13257.6924
2023-03-30T02:33:35.724Z,13258.8457
2023-03-30T02:34:37.148Z,13253.8457
2023-03-30T02:35:38.639Z,13260.6924
2023-03-30T02:36:40.005Z,13249.6152
2023-03-30T02:37:41.435Z,13266.0000
2023-03-30T02:38:42.840Z,13251.0771
2023-03-30T02:39:44.308Z,13248.0771
2023-03-30T02:40:45.697Z,13242.1543
2023-03-30T02:41:47.154Z,13250.2305
2023-03-30T02:42:48.563Z,13256.7695
2023-03-30T02:43:50.024Z,13246.7695
2023-03-30T02:44:51.468Z,13254.1543
2023-03-30T02:45:52.945Z,13240.9229
2023-03-30T02:46:54.333Z,13245.9229
2023-03-30T02:47:55.786Z,13248.8457
2023-03-30T02:48:57.146Z,13245.4619
2023-03-30T02:49:58.611Z,13245.9229
2023-03-30T02:51:00.023Z,13251.0771
2023-03-30T02:52:01.465Z,13250.4619
2023-03-30T02:53:02.859Z,13243.6924
2023-03-30T02:54:04.294Z,13258.9229
2023-03-30T02:55:05.731Z,13251.0000
2023-03-30T02:56:07.200Z,13255.9229
2023-03-30T02:57:08.605Z,13253.6152
2023-03-30T02:58:10.020Z,13244.3076
2023-03-30T02:59:11.504Z,13242.1543
2023-03-30T03:00:12.888Z,13260.0000
2023-03-30T03:01:14.331Z,13258.5381
2023-03-30T03:02:15.789Z,13244.6924
2023-03-30T03:03:17.360Z,13252.6152
2023-03-30T03:04:18.642Z,13262.9229
2023-03-30T03:05:20.063Z,13252.3076
2023-03-30T03:06:21.480Z,13242.8457
2023-03-30T03:07:22.918Z,13248.0000
2023-03-30T03:08:24.330Z,13255.0771
2023-03-30T03:09:25.810Z,13247.0000
2023-03-30T03:10:27.223Z,13251.3076
2023-03-30T03:11:28.616Z,13245.0000
2023-03-30T03:12:30.054Z,13250.6924
2023-03-30T03:13:31.534Z,13252.6924
2023-03-30T03:14:32.944Z,13256.3076
2023-03-30T03:15:34.934Z,13258.2305
2023-03-30T03:16:35.785Z,13264.2305
2023-03-30T03:17:37.238Z,13265.3848
2023-03-30T03:18:38.646Z,13259.0000
2023-03-30T03:19:40.062Z,13258.3076
2023-03-30T03:20:41.480Z,13256.6152
2023-03-30T03:21:42.908Z,13261.5381
2023-03-30T03:22:44.323Z,13259.8457
2023-03-30T03:23:45.773Z,13255.0771
2023-03-30T03:24:47.191Z,13259.8457
2023-03-30T03:25:48.608Z,13261.5381
2023-03-30T03:26:50.050Z,13259.7695
2023-03-30T03:27:51.452Z,13264.1543
2023-03-30T03:28:52.920Z,13279.2305
2023-03-30T03:29:54.349Z,13274.5381
2023-03-30T03:30:55.850Z,13273.1543
2023-03-30T03:31:57.187Z,13268.6152
2023-03-30T03:32:58.641Z,13272.8457
2023-03-30T03:34:00.088Z,13261.9229
2023-03-30T03:35:01.503Z,13274.3076
2023-03-30T03:36:03.815Z,13256.9170
2023-03-30T03:37:04.341Z,13245.6152
2023-03-30T03:38:12.748Z,13240.8457
2023-03-30T03:39:17.450Z,13239.6426
2023-03-30T03:41:53.396Z,13235.8750
2023-03-30T03:42:49.278Z,13232.6670
2023-03-30T03:43:50.721Z,13240.3076
2023-03-30T03:44:52.156Z,13236.3076
2023-03-30T03:45:53.555Z,13237.3076
2023-03-30T03:46:55.037Z,13238.7695
2023-03-30T03:47:56.436Z,13241.2305
2023-03-30T03:48:57.876Z,13242.9229
2023-03-30T03:49:59.281Z,13240.3848
2023-03-30T03:51:00.777Z,13240.7695
2023-03-30T03:52:02.132Z,13242.9229
2023-03-30T03:53:03.561Z,13244.1543
2023-03-30T03:54:04.975Z,13248.3076
2023-03-30T03:55:06.402Z,13249.6924
2023-03-30T03:56:07.819Z,13248.9229
2023-03-30T03:57:09.293Z,13247.2305
2023-03-30T03:58:10.682Z,13251.3848
2023-03-30T03:59:12.120Z,13246.4619
2023-03-30T04:00:13.560Z,13243.7695
2023-03-30T04:01:14.993Z,13251.2305
2023-03-30T04:02:16.594Z,13251.6924
2023-03-30T04:03:17.867Z,13278.7695
2023-03-30T04:04:19.311Z,13318.7695
2023-03-30T04:05:20.667Z,13323.6924
2023-03-30T04:06:22.088Z,13335.7695
2023-03-30T04:07:23.524Z,13347.3848
2023-03-30T04:08:24.958Z,13345.3848
2023-03-30T04:09:26.405Z,13350.6152
2023-03-30T04:10:27.806Z,13339.6152
2023-03-30T04:11:29.269Z,13326.0771
2023-03-30T04:12:30.665Z,13325.6152
2023-03-30T04:13:32.088Z,13320.3076
2023-03-30T04:14:33.537Z,13325.3848
2023-03-30T04:15:34.951Z,13321.3076
2023-03-30T04:16:36.446Z,13314.7695
2023-03-30T04:17:37.840Z,13302.8457
2023-03-30T04:18:39.216Z,13311.2305
2023-03-30T04:19:40.673Z,13306.1543
2023-03-30T04:20:42.085Z,13316.1543
2023-03-30T04:21:43.492Z,13315.7695
2023-03-30T04:22:44.927Z,13316.5381
2023-03-30T04:23:46.346Z,13322.5381
2023-03-30T04:24:47.775Z,13324.2305
2023-03-30T04:25:49.224Z,13318.7695
2023-03-30T04:26:50.640Z,13316.1543
2023-03-30T04:27:52.060Z,13322.8457
2023-03-30T04:28:53.482Z,13318.6152
2023-03-30T04:29:54.933Z,13300.6152
2023-03-30T04:30:56.401Z,13303.0771
2023-03-30T04:31:57.776Z,13300.1543
2023-03-30T04:32:59.226Z,13294.2305
2023-03-30T04:34:00.650Z,13283.5381
2023-03-30T04:35:03.633Z,13276.0771
2023-03-30T04:36:03.559Z,13299.4619
2023-03-30T04:37:04.938Z,13304.3848
2023-03-30T04:38:06.404Z,13304.3076
2023-03-30T04:39:07.782Z,13291.7695
2023-03-30T04:40:09.226Z,13286.0771
2023-03-30T04:41:10.631Z,13294.1543
2023-03-30T04:42:12.114Z,13292.3848
2023-03-30T04:43:13.481Z,13294.9229
2023-03-30T04:44:14.922Z,13291.0000
2023-03-30T04:45:16.337Z,13288.5381
2023-03-30T04:46:17.836Z,13277.9229
2023-03-30T04:47:19.234Z,13271.1543
2023-03-30T04:48:20.644Z,13277.0771
2023-03-30T04:49:22.091Z,13275.3076
2023-03-30T04:50:23.473Z,13276.1543
2023-03-30T04:51:24.967Z,13274.1543
2023-03-30T04:52:26.329Z,13270.6924
2023-03-30T04:53:27.768Z,13272.1543
2023-03-30T04:54:31.335Z,13272.2305
2023-03-30T04:55:30.657Z,13267.4619
2023-03-30T04:56:32.051Z,13269.8457
2023-03-30T04:57:33.475Z,13268.6924
2023-03-30T04:58:34.924Z,13260.7695
2023-03-30T04:59:36.334Z,13257.9229
2023-03-30T05:00:37.818Z,13256.9229
2023-03-30T05:01:39.299Z,13240.8457
2023-03-30T05:02:40.666Z,13232.0000
2023-03-30T05:03:42.076Z,13224.8457
2023-03-30T05:04:43.476Z,13217.6152
2023-03-30T05:05:44.935Z,13213.2305
2023-03-30T05:06:46.370Z,13214.2305
2023-03-30T05:07:47.800Z,13226.6924
2023-03-30T05:08:49.192Z,13223.5381
2023-03-30T05:09:50.726Z,13221.5381
2023-03-30T05:10:52.071Z,13212.4619
2023-03-30T05:11:53.488Z,13214.4619
2023-03-30T05:12:54.917Z,13213.7695
2023-03-30T05:13:56.370Z,13211.4619
2023-03-30T05:14:57.774Z,13210.0000
2023-03-30T05:15:59.210Z,13205.0771
2023-03-30T05:17:00.740Z,13196.2305
2023-03-30T05:18:02.110Z,13206.5381
2023-03-30T05:19:03.476Z,13202.0000
2023-03-30T05:20:04.892Z,13207.0771
2023-03-30T05:21:06.450Z,13198.7695
2023-03-30T05:22:07.774Z,13199.3076
2023-03-30T05:23:09.178Z,13207.4619
2023-03-30T05:24:10.605Z,13206.0771
2023-03-30T05:25:12.073Z,13203.9229
2023-03-30T05:26:13.499Z,13206.6152
2023-03-30T05:27:14.887Z,13209.9229
2023-03-30T05:28:16.336Z,13210.8457
2023-03-30T05:29:17.756Z,13218.2305
2023-03-30T05:30:19.177Z,13216.0000
2023-03-30T05:31:20.663Z,13218.3076
2023-03-30T05:32:22.114Z,13219.8457
2023-03-30T05:33:23.455Z,13217.4619
2023-03-30T05:34:24.910Z,13221.7695
2023-03-30T05:35:26.312Z,13220.7695
2023-03-30T05:36:27.774Z,13223.9229
2023-03-30T05:37:29.197Z,13215.0000
2023-03-30T05:38:30.619Z,13219.0771
2023-03-30T05:39:32.034Z,13222.3076
2023-03-30T05:40:33.469Z,13231.5381
2023-03-30T05:41:34.938Z,13232.5381
2023-03-30T05:42:36.328Z,13232.7695
2023-03-30T05:43:37.759Z,13237.3848
2023-03-30T05:44:39.186Z,13233.0000
2023-03-30T05:45:40.604Z,13229.8457
2023-03-30T05:46:42.092Z,13221.4619
2023-03-30T05:47:43.518Z,13216.7695
2023-03-30T05:48:44.901Z,13228.5381
2023-03-30T05:49:46.320Z,13226.4619
2023-03-30T05:50:47.728Z,13227.8457
2023-03-30T05:51:49.197Z,13231.3076
2023-03-30T05:52:50.598Z,13231.0000
2023-03-30T05:53:52.024Z,13232.0000
2023-03-30T05:54:53.451Z,13231.1543
2023-03-30T05:55:54.905Z,13229.4619
2023-03-30T05:56:56.360Z,13225.0771
2023-03-30T05:57:57.735Z,13229.3076
2023-03-30T05:58:59.157Z,13241.7695
2023-03-30T06:00:00.578Z,13257.2305
2023-03-30T06:01:02.175Z,13253.9229
2023-03-30T06:02:03.462Z,13254.9229
2023-03-30T06:03:04.915Z,13261.4619
2023-03-30T06:04:06.410Z,13274.0771
2023-03-30T06:05:07.726Z,13273.0000
2023-03-30T06:06:09.190Z,13286.2305
2023-03-30T06:07:10.608Z,13296.8457
2023-03-30T06:08:12.025Z,13307.0771
2023-03-30T06:09:13.447Z,13311.0000
2023-03-30T06:10:14.841Z,13305.6152
2023-03-30T06:11:16.293Z,13296.6152
2023-03-30T06:12:17.700Z,13306.9229
2023-03-30T06:13:19.132Z,13306.7695
2023-03-30T06:14:20.546Z,13301.4619
2023-03-30T06:15:21.985Z,13300.9229
2023-03-30T06:16:23.448Z,13301.1543
2023-03-30T06:17:24.915Z,13316.3076
2023-03-30T06:18:26.275Z,13311.0000
2023-03-30T06:19:27.714Z,13324.3076
2023-03-30T06:20:29.139Z,13388.6924
2023-03-30T06:21:30.627Z,13371.4619
2023-03-30T06:22:32.060Z,13357.8457
2023-03-30T06:23:33.428Z,13354.6152
2023-03-30T06:24:34.851Z,13352.0771
2023-03-30T06:25:36.339Z,13346.3848
2023-03-30T06:26:37.733Z,13385.6152
2023-03-30T06:27:39.258Z,13401.0771
2023-03-30T06:28:40.657Z,13401.1543
2023-03-30T06:29:42.082Z,13399.6152
2023-03-30T06:30:43.537Z,13388.9229
2023-03-30T06:31:44.959Z,13401.4619
2023-03-30T06:32:46.400Z,13420.1543
2023-03-30T06:33:47.787Z,13417.1543
2023-03-30T06:34:49.206Z,13412.7695
2023-03-30T06:35:50.694Z,13399.5381
2023-03-30T06:36:52.256Z,13399.1543
2023-03-30T06:37:53.493Z,13408.5381
2023-03-30T06:38:54.906Z,13408.4619
2023-03-30T06:39:56.376Z,13403.6152
2023-03-30T06:40:57.752Z,13403.0000
2023-03-30T06:41:59.229Z,13394.1543
2023-03-30T06:43:00.598Z,13394.3076
2023-03-30T06:44:02.044Z,13402.2305
2023-03-30T06:45:03.473Z,13403.0000
2023-03-30T06:46:05.019Z,13380.4619
2023-03-30T06:47:06.358Z,13384.4619
2023-03-30T06:48:07.813Z,13399.6152
2023-03-30T06:49:09.195Z,13414.8457
2023-03-30T06:50:10.618Z,13411.3076
2023-03-30T06:51:12.035Z,13427.5381
2023-03-30T06:52:13.496Z,13445.5381
2023-03-30T06:53:14.883Z,13451.7695
2023-03-30T06:54:16.321Z,13467.6152
2023-03-30T06:55:17.751Z,13485.0771
2023-03-30T06:56:19.186Z,13497.6152
2023-03-30T06:57:20.658Z,13482.6924
2023-03-30T06:58:22.052Z,13473.3076
2023-03-30T06:59:23.461Z,13461.1543
2023-03-30T07:00:25.196Z,13471.3076
2023-03-30T07:01:26.381Z,13463.5381
2023-03-30T07:02:27.786Z,13465.7695
2023-03-30T07:03:29.222Z,13475.1543
2023-03-30T07:04:30.675Z,13476.5381
2023-03-30T07:05:32.256Z,13476.7695
2023-03-30T07:06:33.487Z,13476.6924
2023-03-30T07:07:34.918Z,13474.3076
2023-03-30T07:08:36.370Z,13488.3076
2023-03-30T07:09:37.775Z,13492.3076
2023-03-30T07:10:39.212Z,13470.3076
2023-03-30T07:11:40.657Z,13465.0771
2023-03-30T07:12:42.118Z,13475.2305
2023-03-30T07:13:43.527Z,13497.6924
2023-03-30T07:14:44.942Z,13504.4619
2023-03-30T07:15:46.581Z,13500.1543
2023-03-30T07:16:47.831Z,13495.8457
2023-03-30T07:17:49.285Z,13498.6152
2023-03-30T07:18:50.669Z,13504.5381
2023-03-30T07:19:52.105Z,13499.6924
2023-03-30T07:20:53.643Z,13511.2305
2023-03-30T07:21:54.938Z,13504.6924
2023-03-30T07:22:56.383Z,13506.2305
2023-03-30T07:23:57.823Z,13503.0000
2023-03-30T07:24:59.222Z,13514.1543
2023-03-30T07:26:00.671Z,13511.8457
2023-03-30T07:27:02.079Z,13505.7695
2023-03-30T07:28:03.528Z,13502.5381
2023-03-30T07:29:04.957Z,13496.0771
2023-03-30T07:30:17.820Z,13487.4619
2023-03-30T07:31:08.264Z,13494.3330
2023-03-30T07:32:09.290Z,13492.5381
2023-03-30T07:33:10.685Z,13478.6152
2023-03-30T07:34:12.087Z,13479.3848
2023-03-30T07:35:13.567Z,13477.9229
2023-03-30T07:36:14.977Z,13492.2305
2023-03-30T07:37:20.597Z,13485.8457
2023-03-30T07:38:17.823Z,13489.0771
2023-03-30T07:39:19.254Z,13489.3076
2023-03-30T07:40:20.755Z,13486.8457
2023-03-30T07:41:22.162Z,13491.0000
2023-03-30T07:42:23.601Z,13485.6924
2023-03-30T07:43:24.979Z,13479.9229
2023-03-30T07:44:26.390Z,13480.4619
2023-03-30T07:45:27.836Z,13486.1543
2023-03-30T07:46:29.338Z,13483.1543
2023-03-30T07:47:30.705Z,13493.3848
2023-03-30T07:48:32.090Z,13499.2305
2023-03-30T07:49:33.527Z,13494.7695
2023-03-30T07:50:34.970Z,13510.3848
2023-03-30T07:51:36.388Z,13525.2305
2023-03-30T07:52:37.828Z,13505.9229
2023-03-30T07:53:39.233Z,13531.3076
2023-03-30T07:54:40.651Z,13539.6152
2023-03-30T07:55:42.113Z,13543.2305
2023-03-30T07:56:43.557Z,13533.8457
2023-03-30T07:57:44.954Z,13539.2305
2023-03-30T07:58:46.371Z,13543.8457
2023-03-30T07:59:47.804Z,13677.8457
2023-03-30T08:00:49.232Z,13644.3848
2023-03-30T08:01:50.688Z,13594.1543
2023-03-30T08:02:52.218Z,13587.8457
2023-03-30T08:03:53.606Z,13608.8457
2023-03-30T08:04:55.071Z,13650.2305
2023-03-30T08:05:56.376Z,13796.0771
2023-03-30T08:06:57.818Z,13898.3848
2023-03-30T08:07:59.235Z,13930.6152
2023-03-30T08:09:00.672Z,13936.2305
2023-03-30T08:10:02.120Z,13969.3076
2023-03-30T08:11:03.760Z,13958.8457
2023-03-30T08:12:04.968Z,13979.0771
2023-03-30T08:13:06.379Z,13902.0000
2023-03-30T08:14:07.817Z,13751.7695
2023-03-30T08:15:09.223Z,13765.9229
2023-03-30T08:16:10.761Z,13705.1543
2023-03-30T08:17:12.144Z,13683.6924
2023-03-30T08:18:13.565Z,13692.8457
2023-03-30T08:19:14.935Z,13698.3076
2023-03-30T08:20:16.376Z,13709.8457
2023-03-30T08:21:17.825Z,13715.9229
2023-03-30T08:22:19.279Z,13708.7695
2023-03-30T08:23:20.671Z,13703.4619
2023-03-30T08:24:22.107Z,13703.4619
2023-03-30T08:25:23.511Z,13695.6152
2023-03-30T08:26:24.982Z,13693.6152
2023-03-30T08:27:26.382Z,13706.9229
2023-03-30T08:28:27.793Z,13716.2305
2023-03-30T08:29:29.246Z,13712.0771
2023-03-30T08:30:30.645Z,13720.8457
2023-03-30T08:31:32.133Z,13720.3848
2023-03-30T08:32:33.522Z,13722.5381
2023-03-30T08:33:34.970Z,13723.7695
2023-03-30T08:34:37.385Z,13713.8457
2023-03-30T08:35:37.886Z,13699.6924
2023-03-30T08:36:39.267Z,13706.3076
2023-03-30T08:37:40.621Z,13705.8457
2023-03-30T08:38:42.100Z,13697.2305
2023-03-30T08:39:43.518Z,13702.6152
2023-03-30T08:40:44.916Z,13700.3076
2023-03-30T08:41:46.323Z,13697.8457
2023-03-30T08:42:47.792Z,13695.0771
2023-03-30T08:43:49.184Z,13696.6152
2023-03-30T08:44:50.637Z,13693.9229
2023-03-30T08:45:52.106Z,13689.2305
2023-03-30T08:46:53.480Z,13688.7695
2023-03-30T08:47:54.985Z,13687.0771
2023-03-30T08:48:56.354Z,13688.3076
2023-03-30T08:49:57.781Z,13700.0771
2023-03-30T08:50:59.203Z,13788.9229
2023-03-30T08:52:02.587Z,13905.0771
2023-03-30T08:53:02.105Z,13921.9229
2023-03-30T08:54:03.487Z,13959.2305
2023-03-30T08:55:04.913Z,13946.0771
2023-03-30T08:56:06.330Z,13936.0771
2023-03-30T08:57:07.883Z,13935.9229
2023-03-30T08:58:09.204Z,13953.5381
2023-03-30T08:59:10.623Z,13960.5381
2023-03-30T09:00:12.030Z,13984.0771
2023-03-30T09:01:13.500Z,13992.4619
2023-03-30T09:02:14.908Z,13979.3076
2023-03-30T09:03:16.372Z,13944.2305
2023-03-30T09:04:17.752Z,13920.0000
2023-03-30T09:05:19.232Z,13897.7695
2023-03-30T09:06:20.601Z,13876.3076
2023-03-30T09:07:22.095Z,13846.7695
2023-03-30T09:08:23.460Z,13826.0000
2023-03-30T09:09:24.885Z,13822.4619
2023-03-30T09:10:26.293Z,13805.5381
2023-03-30T09:11:27.738Z,13796.3076
2023-03-30T09:12:29.195Z,13792.3076
2023-03-30T09:13:31.064Z,13782.4619
2023-03-30T09:14:34.115Z,13767.6367
2023-03-30T09:15:38.174Z,13766.2861
2023-03-30T09:16:39.690Z,13765.0771
2023-03-30T09:17:41.053Z,13767.0771
2023-03-30T09:18:42.467Z,13767.5381
2023-03-30T09:19:43.884Z,13760.6152
2023-03-30T09:20:46.169Z,13765.4619
2023-03-30T09:21:46.740Z,13766.9229
2023-03-30T09:22:48.181Z,13762.9229
2023-03-30T09:23:49.619Z,13764.6152
2023-03-30T09:24:51.063Z,13764.6924
2023-03-30T09:25:52.462Z,13762.6152
2023-03-30T09:26:53.895Z,13763.4619
2023-03-30T09:27:55.325Z,13767.1543
2023-03-30T09:28:56.758Z,13763.5381
2023-03-30T09:29:58.194Z,13773.3848
2023-03-30T09:30:59.623Z,13765.6152
2023-03-30T09:32:01.120Z,13765.6152
2023-03-30T09:33:02.525Z,13768.9229
2023-03-30T09:34:06.243Z,13761.2305
2023-03-30T09:35:05.381Z,13765.9229
2023-03-30T09:36:14.269Z,13768.8457
2023-03-30T09:37:08.181Z,13766.2500
2023-03-30T09:38:09.661Z,13763.1543
2023-03-30T09:39:11.056Z,13763.3076
2023-03-30T09:40:12.458Z,13752.9229
2023-03-30T09:41:13.898Z,13754.1543
2023-03-30T09:42:15.728Z,13754.3848
2023-03-30T09:43:16.771Z,13737.8457
2023-03-30T09:44:18.177Z,13753.0000
2023-03-30T09:45:19.607Z,13758.0771
2023-03-30T09:46:21.050Z,13746.3848
2023-03-30T09:47:22.490Z,13746.6152
2023-03-30T09:48:23.882Z,13729.8457
2023-03-30T09:49:25.333Z,13746.6924
2023-03-30T09:50:26.828Z,13746.9229
2023-03-30T09:51:30.679Z,13730.7695
2023-03-30T09:52:29.618Z,13730.1543
2023-03-30T09:53:31.044Z,13717.3076
2023-03-30T09:54:32.454Z,13704.6152
2023-03-30T09:55:33.883Z,13697.4619
2023-03-30T09:56:35.329Z,13690.6152
2023-03-30T09:57:36.850Z,13676.3076
2023-03-30T09:58:38.238Z,13657.6924
2023-03-30T09:59:39.650Z,13661.3848
2023-03-30T10:00:41.041Z,13665.0000
2023-03-30T10:01:42.524Z,13661.3848
2023-03-30T10:02:44.009Z,13664.6152
2023-03-30T10:03:45.600Z,13664.6924
2023-03-30T10:04:46.824Z,13660.0771
2023-03-30T10:05:48.221Z,13666.8457
2023-03-30T10:06:49.636Z,13662.2305
2023-03-30T10:07:51.073Z,13654.7695
2023-03-30T10:08:52.540Z,13654.0771
2023-03-30T10:09:53.948Z,13647.0771
2023-03-30T10:10:55.384Z,13650.2305
2023-03-30T10:11:56.807Z,13655.9229
2023-03-30T10:12:58.218Z,13653.6152
2023-03-30T10:13:59.661Z,13649.1543
2023-03-30T10:15:01.074Z,13644.9229
2023-03-30T10:16:02.584Z,13647.7695
2023-03-30T10:17:03.906Z,13646.3848
2023-03-30T10:18:05.423Z,13640.0771
2023-03-30T10:19:06.772Z,13641.8457
2023-03-30T10:20:13.943Z,13637.2305
2023-03-30T10:21:09.678Z,13640.2500
2023-03-30T10:22:11.100Z,13640.8457
2023-03-30T10:23:12.535Z,13640.6152
2023-03-30T10:24:14.021Z,13638.5381
2023-03-30T10:25:15.341Z,13639.2305
2023-03-30T10:26:16.811Z,13636.6924
2023-03-30T10:27:18.242Z,13634.1543
2023-03-30T10:28:19.674Z,13638.9229
2023-03-30T10:29:21.239Z,13637.7695
2023-03-30T10:30:22.622Z,13631.7695
2023-03-30T10:31:27.138Z,13639.3848
2023-03-30T10:32:25.547Z,13629.0000
2023-03-30T10:33:26.879Z,13625.0771
2023-03-30T10:34:28.341Z,13626.5381
2023-03-30T10:35:29.868Z,13631.1543
2023-03-30T10:36:31.222Z,13632.3076
2023-03-30T10:37:32.645Z,13637.3848
2023-03-30T10:38:34.130Z,13634.0771
2023-03-30T10:39:35.506Z,13626.6152
2023-03-30T10:40:36.940Z,13632.0771
2023-03-30T10:41:38.402Z,13628.0771
2023-03-30T10:42:39.843Z,13632.3848
2023-03-30T10:43:41.237Z,13632.6924
2023-03-30T10:44:42.654Z,13638.8457
2023-03-30T10:45:44.067Z,13634.4619
2023-03-30T10:46:45.526Z,13630.5381
2023-03-30T10:47:46.944Z,13624.4619
2023-03-30T10:48:48.620Z,13617.3076
2023-03-30T10:49:49.988Z,13622.9229
2023-03-30T10:50:51.244Z,13615.3848
2023-03-30T10:51:52.596Z,13615.6924
2023-03-30T10:52:58.934Z,13620.5381
2023-03-30T10:53:56.928Z,13620.5830
2023-03-30T10:54:56.934Z,13621.3076
2023-03-30T10:55:58.352Z,13622.6924
2023-03-30T10:56:59.804Z,13621.6924
2023-03-30T10:58:01.142Z,13620.0000
2023-03-30T10:59:02.679Z,13621.8457
2023-03-30T11:00:04.066Z,13621.9229
2023-03-30T11:01:05.553Z,13622.0000
2023-03-30T11:02:06.942Z,13618.2305
2023-03-30T11:03:08.376Z,13615.6924
2023-03-30T11:05:11.181Z,13617.6924
2023-03-30T11:06:12.563Z,13614.6924
2023-03-30T11:07:14.001Z,13614.5381
2023-03-30T11:08:15.458Z,13614.7695
2023-03-30T11:09:16.859Z,13617.3848
2023-03-30T11:10:18.344Z,13619.5381
2023-03-30T11:11:19.733Z,13613.5381
2023-03-30T11:12:21.193Z,13619.6152
2023-03-30T11:13:22.586Z,13614.6924
2023-03-30T11:14:24.002Z,13614.8457
2023-03-30T11:15:25.476Z,13612.7695
2023-03-30T11:16:26.866Z,13615.4619
2023-03-30T11:17:28.354Z,13615.3848
2023-03-30T11:18:29.758Z,13613.7695
2023-03-30T11:19:31.165Z,13615.9229
2023-03-30T11:20:32.581Z,13616.6152
2023-03-30T11:21:34.040Z,13613.3076
2023-03-30T11:22:35.465Z,13617.0771
2023-03-30T11:23:36.869Z,13618.8457
2023-03-30T11:24:38.284Z,13609.6924